Cape Girardeau Regional Airport
KCGI : rendu visible

Aérodrome :











RETROUVEZ-NOUS SUR...

 
LOGIN :

S'inscrire | Disclaimer

   EN    FR    IT 

 









Légende :    VFR   VFR Marginal   IFR   IFR Intensif   IFR Très Intensif
Visi : 
Plafond : 
>= 8 km
>= 3000ft
5 à 8 km
1000 à 3000 ft
1500m à 5 km
500 à 1000 ft
800 à 1500m
200 à 500 ft
< 800m
< 200 ft
Symboles :   Orages  Brouillard  Fortes neiges  Fortes précipitations  Vent > 20 kt






- Altitude de l'aérodrome : 342 ft
- Code IATA : CGI


KCGI - Cape Girardeau Regional

DERNIER METAR :
  • 260453Z AUTO 08003KT 5SM BR BKN120 M01/M02 A3008 RMK AO2 SLP190 T10111022

METARs EXPIRÉS :
  • 260353Z AUTO 09003KT 7SM CLR M01/M02 A3008 RMK AO2 SLP189 T10061022
  • 260253Z AUTO 08003KT 6SM BR CLR M01/M02 A3008 RMK AO2 SLP189 T10061022 50000

TAF KCGI
Valide du 26 à 03h jusqu'au 27 à 00h UTC


260239Z 2603/2624 VRB03KT P6SM BKN100
FM261600 20004KT P6SM OVC025



MET'MAP, la Météo Aéronautique d'un coup d'oeil ! - Copyright ORBIFLY Décembre 2007 - Disclaimer

ORBIFLY MET'MAP TEAM :

Programmation & Développement : Alexandra Zaïnal
Sur une idée originale de : Baudouin d'Aumeries
Assistance à la programmation : Marc-Olivier Méhu
Soutien technique & logistique : Manuel Goepfert

Contact : metmap@orbifly.com




SOURCES & CREDITS :

   NOAA       Earth
Advisory